createdAt,value
2019-05-06T00:00:55.308Z,68.60
2019-05-06T00:03:19.215Z,68.30
2019-05-06T00:05:50.056Z,68.00
2019-05-06T00:08:21.188Z,68.00
2019-05-06T00:10:54.109Z,69.20
2019-05-06T00:13:25.508Z,68.10
2019-05-06T00:15:56.558Z,70.20
2019-05-06T00:18:27.500Z,69.90
2019-05-06T00:20:58.416Z,69.30
2019-05-06T00:23:38.188Z,69.10
2019-05-06T00:26:10.977Z,69.30
2019-05-06T00:28:44.674Z,70.30
2019-05-06T00:31:17.242Z,68.90
2019-05-06T00:33:48.368Z,68.60
2019-05-06T00:36:19.535Z,68.10
2019-05-06T00:38:53.808Z,68.00
2019-05-06T00:41:25.412Z,67.60
2019-05-06T00:43:58.099Z,67.50
2019-05-06T00:46:29.014Z,66.80
2019-05-06T00:48:59.870Z,66.30
2019-05-06T00:51:30.976Z,66.70
2019-05-06T00:54:03.987Z,66.40
2019-05-06T00:56:36.190Z,66.30
2019-05-06T00:59:07.249Z,65.80
2019-05-06T01:01:39.580Z,66.70
2019-05-06T01:04:10.624Z,65.80
2019-05-06T01:06:43.886Z,65.30
2019-05-06T01:09:15.710Z,64.90
2019-05-06T01:11:48.097Z,66.50
2019-05-06T01:14:20.356Z,65.00
2019-05-06T01:16:51.332Z,64.80
2019-05-06T01:19:23.566Z,64.90
2019-05-06T01:21:57.435Z,64.60
2019-05-06T01:24:28.581Z,64.40
2019-05-06T01:26:59.526Z,64.60
2019-05-06T01:29:30.376Z,64.40
2019-05-06T01:32:03.544Z,65.00
2019-05-06T01:34:34.073Z,64.40
2019-05-06T01:37:05.312Z,63.90
2019-05-06T01:39:37.394Z,64.20
2019-05-06T01:42:10.070Z,64.10
2019-05-06T01:44:41.108Z,63.80
2019-05-06T01:47:15.524Z,63.90
2019-05-06T01:49:47.774Z,63.80
2019-05-06T01:52:18.594Z,63.10
2019-05-06T01:54:49.341Z,63.10
2019-05-06T01:57:20.321Z,63.00
2019-05-06T01:59:51.231Z,63.00
2019-05-06T02:02:23.904Z,62.70
2019-05-06T02:04:54.443Z,63.10
2019-05-06T02:07:25.335Z,62.50
2019-05-06T02:09:57.367Z,62.40
2019-05-06T02:12:28.261Z,62.30
2019-05-06T02:14:59.456Z,62.30
2019-05-06T02:17:30.346Z,62.10
2019-05-06T02:20:01.150Z,61.90
2019-05-06T02:22:34.609Z,61.90
2019-05-06T02:25:09.351Z,61.90
2019-05-06T02:27:44.391Z,61.50
2019-05-06T02:30:15.227Z,61.20
2019-05-06T02:32:48.266Z,60.80
2019-05-06T02:35:22.009Z,60.40
2019-05-06T02:37:55.112Z,60.20
2019-05-06T02:40:28.846Z,59.40
2019-05-06T02:43:02.970Z,59.80
2019-05-06T02:45:38.692Z,59.70
2019-05-06T02:48:13.406Z,59.60
2019-05-06T02:50:45.556Z,59.60
2019-05-06T02:53:18.319Z,59.40
2019-05-06T02:55:49.166Z,59.40
2019-05-06T02:58:23.458Z,59.40
2019-05-06T03:00:57.361Z,58.80
2019-05-06T03:03:29.516Z,59.50
2019-05-06T03:06:03.968Z,58.90
2019-05-06T03:08:34.041Z,58.70
2019-05-06T03:11:05.357Z,58.80
2019-05-06T03:13:39.093Z,58.50
2019-05-06T03:16:10.265Z,57.70
2019-05-06T03:18:43.371Z,58.40
2019-05-06T03:21:16.369Z,58.00
2019-05-06T03:23:49.953Z,58.20
2019-05-06T03:26:23.703Z,58.50
2019-05-06T03:28:54.794Z,58.70
2019-05-06T03:31:27.771Z,58.50
2019-05-06T03:34:29.045Z,58.10
2019-05-06T03:36:40.371Z,58.40
2019-05-06T03:39:08.065Z,57.90
2019-05-06T03:41:43.673Z,58.00
2019-05-06T03:44:16.741Z,57.00
2019-05-06T03:46:48.919Z,57.30
2019-05-06T03:49:23.622Z,56.90
2019-05-06T03:51:56.139Z,57.20
2019-05-06T03:54:26.021Z,56.40
2019-05-06T03:56:58.072Z,56.70
2019-05-06T03:59:33.594Z,56.80
2019-05-06T04:02:05.232Z,56.00
2019-05-06T04:04:36.769Z,55.70
2019-05-06T04:07:08.114Z,55.80
2019-05-06T04:09:38.975Z,55.60
2019-05-06T04:12:12.842Z,55.60
2019-05-06T04:14:49.609Z,55.20
2019-05-06T04:17:26.041Z,54.80
2019-05-06T04:19:57.161Z,55.80
2019-05-06T04:22:32.912Z,55.70
2019-05-06T04:25:03.938Z,55.30
2019-05-06T04:27:37.667Z,52.70
2019-05-06T04:39:53.537Z,54.20
2019-05-06T04:42:27.003Z,53.40
2019-05-06T04:45:05.033Z,53.40
2019-05-06T04:47:35.496Z,52.30
2019-05-06T04:50:08.150Z,53.40
2019-05-06T04:52:39.540Z,53.30
2019-05-06T04:55:13.733Z,53.30
2019-05-06T04:57:44.199Z,53.90
2019-05-06T05:00:16.195Z,54.40
2019-05-06T05:02:48.629Z,53.00
2019-05-06T05:05:19.676Z,52.30
2019-05-06T05:07:52.820Z,52.10
2019-05-06T05:10:24.687Z,52.70
2019-05-06T05:12:57.008Z,53.40
2019-05-06T05:15:29.235Z,53.30
2019-05-06T05:18:03.177Z,53.70
2019-05-06T05:20:39.651Z,52.60
2019-05-06T05:23:06.612Z,50.90
2019-05-06T05:25:37.616Z,53.40
2019-05-06T05:28:08.798Z,51.70
2019-05-06T05:30:42.787Z,52.60
2019-05-06T05:33:13.738Z,52.10
2019-05-06T05:35:44.772Z,51.40
2019-05-06T05:38:16.491Z,52.90
2019-05-06T05:40:47.493Z,50.70
2019-05-06T05:43:19.633Z,50.60
2019-05-06T05:45:52.304Z,50.70
2019-05-06T05:48:25.206Z,51.90
2019-05-06T05:50:58.188Z,51.20
2019-05-06T05:53:30.262Z,51.30
2019-05-06T05:56:03.152Z,50.90
2019-05-06T05:58:34.391Z,51.60
2019-05-06T06:01:08.858Z,51.70
2019-05-06T06:03:38.465Z,51.80
2019-05-06T06:06:12.454Z,51.40
2019-05-06T06:08:43.067Z,50.40
2019-05-06T06:11:20.125Z,51.50
2019-05-06T06:13:52.288Z,48.00
2019-05-06T06:16:25.730Z,50.60
2019-05-06T06:18:58.974Z,50.10
2019-05-06T06:21:32.314Z,48.20
2019-05-06T06:24:04.857Z,49.30
2019-05-06T06:26:35.777Z,49.70
2019-05-06T06:29:07.269Z,48.10
2019-05-06T06:31:42.730Z,48.80
2019-05-06T06:34:13.857Z,48.20
2019-05-06T06:36:48.416Z,47.90
2019-05-06T06:39:22.777Z,47.90
2019-05-06T06:41:53.199Z,48.50
2019-05-06T06:44:25.861Z,49.00
2019-05-06T06:47:02.328Z,47.70
2019-05-06T06:49:33.319Z,48.60
2019-05-06T06:52:10.872Z,48.20
2019-05-06T06:54:38.155Z,48.60
2019-05-06T06:57:12.601Z,48.70
2019-05-06T06:59:44.930Z,48.30
2019-05-06T07:02:18.854Z,48.20
2019-05-06T07:04:49.739Z,47.70
2019-05-06T07:07:23.990Z,47.60
2019-05-06T07:09:55.725Z,47.70
2019-05-06T07:12:36.822Z,47.40
2019-05-06T07:15:09.932Z,45.70
2019-05-06T07:17:45.150Z,47.30
2019-05-06T07:20:22.866Z,46.70
2019-05-06T07:22:53.545Z,47.10
2019-05-06T07:25:25.602Z,47.90
2019-05-06T07:28:02.929Z,48.00
2019-05-06T07:30:35.515Z,47.60
2019-05-06T07:33:09.478Z,48.20
2019-05-06T07:35:43.283Z,48.00
2019-05-06T07:38:13.222Z,48.50
2019-05-06T07:40:57.126Z,48.40
2019-05-06T07:43:29.797Z,47.10
2019-05-06T07:46:05.961Z,48.90
2019-05-06T07:48:42.887Z,49.40
2019-05-06T07:51:13.903Z,49.60
2019-05-06T07:53:46.111Z,50.10
2019-05-06T07:56:19.149Z,50.30
2019-05-06T07:58:52.902Z,50.60
2019-05-06T08:01:26.177Z,51.30
2019-05-06T08:03:56.739Z,51.00
2019-05-06T08:06:27.500Z,51.30
2019-05-06T08:08:58.365Z,51.50
2019-05-06T08:11:29.364Z,51.60
2019-05-06T08:14:02.255Z,51.90
2019-05-06T08:16:34.784Z,52.00
2019-05-06T08:19:06.230Z,52.60
2019-05-06T08:21:39.494Z,52.40
2019-05-06T08:27:25.019Z,52.00
2019-05-06T08:29:56.037Z,52.00
2019-05-06T08:32:27.284Z,52.00
2019-05-06T08:34:58.307Z,51.70
2019-05-06T08:37:32.111Z,51.40
2019-05-06T08:40:03.478Z,51.40
2019-05-06T08:42:35.045Z,51.20
2019-05-06T08:45:08.830Z,51.00
2019-05-06T08:47:39.814Z,50.60
2019-05-06T08:50:12.887Z,49.80
2019-05-06T08:52:46.927Z,50.20
2019-05-06T08:55:19.521Z,50.40
2019-05-06T08:57:53.766Z,50.50
2019-05-06T09:00:24.936Z,50.20
2019-05-06T09:02:57.848Z,50.00
2019-05-06T09:05:28.656Z,50.40
2019-05-06T09:08:00.424Z,50.40
2019-05-06T09:10:32.475Z,50.70
2019-05-06T09:13:03.924Z,50.90
2019-05-06T09:15:34.800Z,51.20
2019-05-06T09:18:05.840Z,51.40
2019-05-06T09:20:55.528Z,51.90
2019-05-06T09:23:12.291Z,52.00
2019-05-06T09:25:43.305Z,52.00
2019-05-06T09:28:24.168Z,52.10
2019-05-06T09:30:55.396Z,52.20
2019-05-06T09:33:28.466Z,52.90
2019-05-06T09:35:59.747Z,52.90
2019-05-06T09:38:32.168Z,52.70
2019-05-06T09:41:05.034Z,52.90
2019-05-06T09:43:36.088Z,53.30
2019-05-06T09:46:07.409Z,53.00
2019-05-06T09:48:42.321Z,53.10
2019-05-06T09:51:13.205Z,53.40
2019-05-06T09:53:46.106Z,53.50
2019-05-06T09:56:18.434Z,53.60
2019-05-06T09:58:50.094Z,53.50
2019-05-06T10:01:22.561Z,53.70
2019-05-06T10:03:55.713Z,53.70
2019-05-06T10:06:26.897Z,53.70
2019-05-06T10:08:58.087Z,53.70
2019-05-06T10:11:29.011Z,54.20
2019-05-06T10:14:02.877Z,54.60
2019-05-06T10:16:32.998Z,53.90
2019-05-06T10:19:04.436Z,53.60
2019-05-06T10:21:35.842Z,54.70
2019-05-06T10:24:07.243Z,57.90
2019-05-06T10:26:40.081Z,56.10
2019-05-06T10:29:12.789Z,56.00
2019-05-06T10:31:45.440Z,57.90
2019-05-06T10:34:16.981Z,57.30
2019-05-06T10:36:53.178Z,58.80
2019-05-06T10:39:25.535Z,58.10
2019-05-06T10:42:03.012Z,61.00
2019-05-06T10:44:36.951Z,60.90
2019-05-06T10:47:08.190Z,60.50
2019-05-06T10:49:41.933Z,59.70
2019-05-06T10:52:13.943Z,60.50
2019-05-06T10:54:46.162Z,60.80
2019-05-06T10:57:18.912Z,61.20
2019-05-06T10:59:50.673Z,62.30
2019-05-06T11:02:23.125Z,62.00
2019-05-06T11:04:53.844Z,61.10
2019-05-06T11:07:31.298Z,62.60
2019-05-06T11:09:57.565Z,61.50
2019-05-06T11:12:32.598Z,61.00
2019-05-06T11:15:03.789Z,61.60
2019-05-06T11:17:34.890Z,61.80
2019-05-06T11:20:10.255Z,62.10
2019-05-06T11:22:39.560Z,63.90
2019-05-06T11:25:14.481Z,64.00
2019-05-06T11:27:47.313Z,62.60
2019-05-06T11:30:21.843Z,62.10
2019-05-06T11:32:54.914Z,61.30
2019-05-06T11:35:28.112Z,62.00
2019-05-06T11:38:00.901Z,61.70
2019-05-06T11:40:33.116Z,61.60
2019-05-06T11:43:04.950Z,61.00
2019-05-06T11:45:35.836Z,61.80
2019-05-06T11:48:07.193Z,61.80
2019-05-06T11:50:38.612Z,62.20
2019-05-06T11:53:09.943Z,62.50
2019-05-06T11:55:44.114Z,62.80
2019-05-06T11:58:16.403Z,63.80
2019-05-06T12:00:49.412Z,62.90
2019-05-06T12:03:20.573Z,63.70
2019-05-06T12:05:55.848Z,63.70
2019-05-06T12:08:26.199Z,62.20
2019-05-06T12:10:57.186Z,63.40
2019-05-06T12:13:28.219Z,62.10
2019-05-06T12:15:59.438Z,62.30
2019-05-06T12:18:32.143Z,62.90
2019-05-06T12:21:11.268Z,64.00
2019-05-06T12:23:36.371Z,62.20
2019-05-06T12:26:07.649Z,61.80
2019-05-06T12:28:38.604Z,61.80
2019-05-06T12:31:09.619Z,64.10
2019-05-06T12:33:42.854Z,64.30
2019-05-06T12:36:16.881Z,63.20
2019-05-06T12:38:49.413Z,63.00
2019-05-06T12:41:22.901Z,63.90
2019-05-06T12:43:52.946Z,63.50
2019-05-06T12:46:25.301Z,63.30
2019-05-06T12:48:56.406Z,64.10
2019-05-06T12:51:27.525Z,62.60
2019-05-06T12:53:58.662Z,63.40
2019-05-06T12:56:29.914Z,63.80
2019-05-06T12:59:12.746Z,62.30
2019-05-06T13:01:44.930Z,62.60
2019-05-06T13:04:13.771Z,63.10
2019-05-06T13:06:46.784Z,63.10
2019-05-06T13:09:17.625Z,62.20
2019-05-06T13:11:48.520Z,62.20
2019-05-06T13:14:19.530Z,62.70
2019-05-06T13:16:53.018Z,61.60
2019-05-06T13:19:23.526Z,62.60
2019-05-06T13:21:54.501Z,63.10
2019-05-06T13:24:26.036Z,63.40
2019-05-06T13:26:58.951Z,62.10
2019-05-06T13:29:35.174Z,63.30
2019-05-06T13:32:03.649Z,64.00
2019-05-06T13:34:35.010Z,64.60
2019-05-06T13:37:07.070Z,64.30
2019-05-06T13:39:38.158Z,65.40
2019-05-06T13:42:13.048Z,64.30
2019-05-06T13:44:42.823Z,64.00
2019-05-06T13:47:14.990Z,64.50
2019-05-06T13:49:47.756Z,64.60
2019-05-06T13:52:19.313Z,63.70
2019-05-06T13:54:52.909Z,63.50
2019-05-06T13:57:23.578Z,64.30
2019-05-06T13:59:54.862Z,63.70
2019-05-06T14:02:28.126Z,63.70
2019-05-06T14:04:59.008Z,63.60
2019-05-06T14:07:34.155Z,62.80
2019-05-06T14:10:02.751Z,62.50
2019-05-06T14:12:34.899Z,63.60
2019-05-06T14:15:12.486Z,63.60
2019-05-06T14:17:43.771Z,63.20
2019-05-06T14:20:29.222Z,62.80
2019-05-06T14:23:02.097Z,62.90
2019-05-06T14:25:33.748Z,62.80
2019-05-06T14:28:06.132Z,62.80
2019-05-06T14:30:38.972Z,62.90
2019-05-06T14:33:15.122Z,62.80
2019-05-06T14:35:43.037Z,63.00
2019-05-06T14:38:15.416Z,62.60
2019-05-06T14:40:47.560Z,62.90
2019-05-06T14:43:18.840Z,62.70
2019-05-06T14:45:49.887Z,64.00
2019-05-06T14:48:22.464Z,63.10
2019-05-06T14:50:57.267Z,63.00
2019-05-06T14:53:36.418Z,64.60
2019-05-06T14:56:04.570Z,63.90
2019-05-06T14:58:35.722Z,64.10
2019-05-06T15:01:08.234Z,64.30
2019-05-06T15:03:43.044Z,64.90
2019-05-06T15:06:14.263Z,66.00
2019-05-06T15:08:45.627Z,65.00
2019-05-06T15:11:22.720Z,64.10
2019-05-06T15:13:53.201Z,63.80
2019-05-06T15:16:26.022Z,64.10
2019-05-06T15:18:57.266Z,64.40
2019-05-06T15:21:36.538Z,64.90
2019-05-06T15:24:02.675Z,64.80
2019-05-06T15:26:33.875Z,64.90
2019-05-06T15:29:04.973Z,66.20
2019-05-06T15:31:37.586Z,64.40
2019-05-06T15:34:13.066Z,64.60
2019-05-06T15:36:45.338Z,64.60
2019-05-06T15:39:16.577Z,64.20
2019-05-06T15:41:51.951Z,63.60
2019-05-06T15:44:24.620Z,64.30
2019-05-06T15:46:59.534Z,64.10
2019-05-06T15:49:41.796Z,64.10
2019-05-06T15:52:12.573Z,64.20
2019-05-06T15:54:43.776Z,67.00
2019-05-06T15:57:15.322Z,66.40
2019-05-06T15:59:47.915Z,66.60
2019-05-06T16:02:19.049Z,66.20
2019-05-06T16:04:50.170Z,64.90
2019-05-06T16:07:25.224Z,64.70
2019-05-06T16:10:04.567Z,66.90
2019-05-06T16:12:34.984Z,66.10
2019-05-06T16:15:12.979Z,65.80
2019-05-06T16:17:44.193Z,65.20
2019-05-06T16:20:18.812Z,64.90
2019-05-06T16:22:52.387Z,66.20
2019-05-06T16:25:24.611Z,65.70
2019-05-06T16:27:57.179Z,65.50
2019-05-06T16:30:28.437Z,65.50
2019-05-06T16:32:59.991Z,66.00
2019-05-06T16:35:42.607Z,66.00
2019-05-06T16:38:14.059Z,65.50
2019-05-06T16:40:46.496Z,66.30
2019-05-06T16:43:17.769Z,65.00
2019-05-06T16:45:48.651Z,65.70
2019-05-06T16:48:19.774Z,64.70
2019-05-06T16:50:50.761Z,65.20
2019-05-06T16:53:23.145Z,66.20
2019-05-06T16:55:55.989Z,66.00
2019-05-06T16:58:28.772Z,65.50
2019-05-06T17:01:00.052Z,64.30
2019-05-06T17:03:33.021Z,64.30
2019-05-06T17:06:05.220Z,64.30
2019-05-06T17:08:36.763Z,64.70
2019-05-06T17:11:08.264Z,65.20
2019-05-06T17:13:39.418Z,64.70
2019-05-06T17:16:13.714Z,64.30
2019-05-06T17:18:44.562Z,63.90
2019-05-06T17:21:15.657Z,64.00
2019-05-06T17:23:46.549Z,64.00
2019-05-06T17:26:17.438Z,64.30
2019-05-06T17:28:52.077Z,64.50
2019-05-06T17:31:23.110Z,64.30
2019-05-06T17:33:55.655Z,65.30
2019-05-06T17:36:28.567Z,65.50
2019-05-06T17:39:00.224Z,67.00
2019-05-06T17:41:44.553Z,65.20
2019-05-06T17:44:03.976Z,65.60
2019-05-06T17:46:36.529Z,65.10
2019-05-06T17:49:09.395Z,64.60
2019-05-06T17:51:42.594Z,65.20
2019-05-06T17:54:13.857Z,65.10
2019-05-06T17:56:47.753Z,65.60
2019-05-06T17:59:18.834Z,66.20
2019-05-06T18:01:53.008Z,65.80
2019-05-06T18:04:23.503Z,65.40
2019-05-06T18:06:54.374Z,66.40
2019-05-06T18:09:25.326Z,66.70
2019-05-06T18:11:59.183Z,67.60
2019-05-06T18:14:29.275Z,67.60
2019-05-06T18:17:03.429Z,67.60
2019-05-06T18:19:33.827Z,67.20
2019-05-06T18:22:04.903Z,67.80
2019-05-06T18:24:36.019Z,67.20
2019-05-06T18:27:07.332Z,67.30
2019-05-06T18:29:38.345Z,66.70
2019-05-06T18:32:09.677Z,67.10
2019-05-06T18:34:40.881Z,67.40
2019-05-06T18:37:12.773Z,66.80
2019-05-06T18:39:43.947Z,68.00
2019-05-06T18:42:19.915Z,68.00
2019-05-06T18:44:47.672Z,67.20
2019-05-06T18:47:18.804Z,67.20
2019-05-06T18:49:52.129Z,67.70
2019-05-06T18:52:22.904Z,67.20
2019-05-06T18:54:57.237Z,67.40
2019-05-06T18:57:28.252Z,67.40
2019-05-06T18:59:59.333Z,68.20
2019-05-06T19:02:30.400Z,67.60
2019-05-06T19:05:02.578Z,68.40
2019-05-06T19:07:33.867Z,69.50
2019-05-06T19:10:06.763Z,69.90
2019-05-06T19:12:41.337Z,69.30
2019-05-06T19:15:12.632Z,70.00
2019-05-06T19:17:44.348Z,69.20
2019-05-06T19:20:15.839Z,69.60
2019-05-06T19:22:46.812Z,69.60
2019-05-06T19:25:18.160Z,68.00
2019-05-06T19:27:48.985Z,68.50
2019-05-06T19:30:22.474Z,68.20
2019-05-06T19:32:53.350Z,68.40
2019-05-06T19:35:24.895Z,66.90
2019-05-06T19:37:58.226Z,66.90
2019-05-06T19:40:29.270Z,67.30
2019-05-06T19:43:00.472Z,68.40
2019-05-06T19:45:34.432Z,67.40
2019-05-06T19:48:04.414Z,68.00
2019-05-06T19:50:36.817Z,68.00
2019-05-06T19:53:08.458Z,69.20
2019-05-06T19:55:39.580Z,69.80
2019-05-06T19:58:12.883Z,70.20
2019-05-06T20:00:43.040Z,69.90
2019-05-06T20:03:14.423Z,69.90
2019-05-06T20:05:47.150Z,69.10
2019-05-06T20:08:19.554Z,68.40
2019-05-06T20:10:52.846Z,67.90
2019-05-06T20:13:24.112Z,67.90
2019-05-06T20:15:55.436Z,67.90
2019-05-06T20:18:26.229Z,67.60
2019-05-06T20:20:56.953Z,67.90
2019-05-06T20:23:28.158Z,67.80
2019-05-06T20:25:59.093Z,68.20
2019-05-06T20:28:32.099Z,67.80
2019-05-06T20:31:02.915Z,67.90
2019-05-06T20:33:37.171Z,68.60
2019-05-06T20:36:08.470Z,69.20
2019-05-06T20:38:39.753Z,70.30
2019-05-06T20:41:12.633Z,69.80
2019-05-06T20:43:43.228Z,70.50
2019-05-06T20:46:14.330Z,70.00
2019-05-06T20:48:45.641Z,72.40
2019-05-06T20:51:16.734Z,70.90
2019-05-06T20:53:48.103Z,70.70
2019-05-06T20:56:21.975Z,70.40
2019-05-06T20:58:53.508Z,71.40
2019-05-06T21:01:24.385Z,71.60
2019-05-06T21:03:55.422Z,71.80
2019-05-06T21:06:26.772Z,71.00
2019-05-06T21:08:57.784Z,71.00
2019-05-06T21:11:29.505Z,71.90
2019-05-06T21:14:02.228Z,71.80
2019-05-06T21:16:33.248Z,71.60
2019-05-06T21:19:04.222Z,71.00
2019-05-06T21:21:35.357Z,72.30
2019-05-06T21:24:06.530Z,71.70
2019-05-06T21:26:37.531Z,72.30
2019-05-06T21:29:08.799Z,72.40
2019-05-06T21:31:42.096Z,71.80
2019-05-06T21:34:12.802Z,72.40
2019-05-06T21:36:44.308Z,72.60
2019-05-06T21:39:15.514Z,72.00
2019-05-06T21:41:46.581Z,71.30
2019-05-06T21:44:17.708Z,71.30
2019-05-06T21:46:48.983Z,71.30
2019-05-06T21:49:19.946Z,70.30
2019-05-06T21:51:51.174Z,70.10
2019-05-06T21:54:23.195Z,71.00
2019-05-06T21:56:54.530Z,70.60
2019-05-06T21:59:25.777Z,69.90
2019-05-06T22:01:56.897Z,70.00
2019-05-06T22:04:28.244Z,70.00
2019-05-06T22:06:59.298Z,69.60
2019-05-06T22:09:32.268Z,69.50
2019-05-06T22:12:02.911Z,71.20
2019-05-06T22:14:33.860Z,70.80
2019-05-06T22:17:06.661Z,71.40
2019-05-06T22:19:37.738Z,74.00
2019-05-06T22:22:12.060Z,73.20
2019-05-06T22:24:44.796Z,70.70
2019-05-06T22:27:16.637Z,71.00
2019-05-06T22:29:47.957Z,70.90
2019-05-06T22:32:19.446Z,71.30
2019-05-06T22:34:50.421Z,72.60
2019-05-06T22:37:22.115Z,71.30
2019-05-06T22:39:53.506Z,70.80
2019-05-06T22:42:25.157Z,71.40
2019-05-06T22:44:56.184Z,72.00
2019-05-06T22:47:32.397Z,71.40
2019-05-06T22:50:03.183Z,73.70
2019-05-06T22:52:33.879Z,73.10
2019-05-06T22:55:05.132Z,73.00
2019-05-06T22:57:45.555Z,72.10
2019-05-06T23:00:19.045Z,71.40
2019-05-06T23:02:52.814Z,73.10
2019-05-06T23:05:23.970Z,73.80
2019-05-06T23:07:54.759Z,72.10
2019-05-06T23:10:25.653Z,73.70
2019-05-06T23:12:56.776Z,72.40
2019-05-06T23:15:28.015Z,72.60
2019-05-06T23:17:58.974Z,73.50
2019-05-06T23:20:32.043Z,71.80
2019-05-06T23:23:04.701Z,72.30
2019-05-06T23:25:34.913Z,73.30
2019-05-06T23:28:05.883Z,73.10
2019-05-06T23:30:37.234Z,73.10
2019-05-06T23:33:08.464Z,73.20
2019-05-06T23:35:43.704Z,72.40
2019-05-06T23:38:15.054Z,72.00
2019-05-06T23:40:48.863Z,72.10
2019-05-06T23:43:22.447Z,72.10
2019-05-06T23:45:56.088Z,72.10
2019-05-06T23:48:29.665Z,74.00
2019-05-06T23:51:03.259Z,73.70
2019-05-06T23:53:37.488Z,73.40
2019-05-06T23:56:13.056Z,74.20
2019-05-06T23:58:43.585Z,72.80
